createdAt,value
2023-01-17T00:02:26.397Z,6.91
2023-01-17T00:05:12.474Z,6.89
2023-01-17T00:07:59.680Z,6.88
2023-01-17T00:10:29.503Z,6.87
2023-01-17T00:12:59.708Z,6.86
2023-01-17T00:15:29.090Z,6.85
2023-01-17T00:17:58.647Z,6.86
2023-01-17T00:20:46.351Z,6.89
2023-01-17T00:23:35.633Z,6.91
2023-01-17T00:26:04.955Z,6.90
2023-01-17T00:28:34.684Z,6.89
2023-01-17T00:31:02.504Z,6.89
2023-01-17T00:33:29.876Z,6.89
2023-01-17T00:35:58.289Z,6.88
2023-01-17T00:38:28.772Z,6.90
2023-01-17T00:41:02.104Z,6.86
2023-01-17T00:43:49.299Z,6.78
2023-01-17T00:46:36.005Z,6.70
2023-01-17T00:49:22.491Z,6.69
2023-01-17T00:52:08.194Z,6.66
2023-01-17T00:54:55.358Z,6.66
2023-01-17T00:57:41.163Z,6.65
2023-01-17T01:00:28.284Z,6.65
2023-01-17T01:03:13.918Z,6.64
2023-01-17T01:05:59.647Z,6.61
2023-01-17T01:08:47.518Z,6.56
2023-01-17T01:11:36.335Z,6.56
2023-01-17T01:14:23.612Z,6.57
2023-01-17T01:17:09.351Z,6.61
2023-01-17T01:19:54.979Z,6.64
2023-01-17T01:22:40.675Z,6.56
2023-01-17T01:25:27.434Z,6.51
2023-01-17T01:28:23.848Z,6.45
2023-01-17T01:31:09.871Z,6.37
2023-01-17T01:33:38.249Z,6.39
2023-01-17T01:36:09.283Z,6.41
2023-01-17T01:38:38.357Z,6.46
2023-01-17T01:41:07.516Z,6.49
2023-01-17T01:43:47.352Z,6.50
2023-01-17T01:46:19.900Z,6.48
2023-01-17T01:48:50.180Z,6.45
2023-01-17T01:51:23.663Z,6.48
2023-01-17T01:53:55.832Z,6.54
2023-01-17T01:56:24.976Z,6.57
2023-01-17T01:58:55.394Z,6.54
2023-01-17T02:01:23.975Z,6.47
2023-01-17T02:03:53.148Z,6.39
2023-01-17T02:06:29.400Z,6.30
2023-01-17T02:09:00.244Z,6.23
2023-01-17T02:11:28.748Z,6.16
2023-01-17T02:13:59.135Z,6.11
2023-01-17T02:16:47.579Z,6.03
2023-01-17T02:19:51.061Z,5.96
2023-01-17T02:23:03.309Z,5.91
2023-01-17T02:25:54.038Z,5.89
2023-01-17T02:28:39.951Z,5.88
2023-01-17T02:31:15.960Z,5.94
2023-01-17T02:33:51.340Z,5.96
2023-01-17T02:36:25.298Z,5.97
2023-01-17T02:38:58.043Z,6.01
2023-01-17T02:41:32.722Z,6.05
2023-01-17T02:44:04.215Z,6.04
2023-01-17T02:46:34.041Z,6.03
2023-01-17T02:49:02.959Z,6.10
2023-01-17T02:51:57.863Z,6.10
2023-01-17T02:55:01.361Z,6.05
2023-01-17T02:57:55.380Z,5.99
2023-01-17T03:00:30.428Z,5.93
2023-01-17T03:03:06.500Z,5.88
2023-01-17T03:05:41.643Z,5.84
2023-01-17T03:08:12.155Z,5.82
2023-01-17T03:10:42.851Z,5.85
2023-01-17T03:13:11.208Z,5.87
2023-01-17T03:15:41.534Z,5.86
2023-01-17T03:18:14.872Z,5.87
2023-01-17T03:20:43.813Z,5.88
2023-01-17T03:23:12.125Z,5.90
2023-01-17T03:25:40.490Z,5.93
2023-01-17T03:28:08.825Z,5.96
2023-01-17T03:30:37.192Z,6.03
2023-01-17T03:33:06.113Z,6.07
2023-01-17T03:35:36.295Z,6.12
2023-01-17T03:38:04.754Z,6.13
2023-01-17T03:40:33.339Z,6.15
2023-01-17T03:43:01.725Z,6.20
2023-01-17T03:45:30.034Z,6.23
2023-01-17T03:47:58.411Z,6.27
2023-01-17T03:50:26.964Z,6.31
2023-01-17T03:52:56.970Z,6.33
2023-01-17T03:55:25.722Z,6.36
2023-01-17T03:57:54.076Z,6.39
2023-01-17T04:00:23.529Z,6.40
2023-01-17T04:02:51.869Z,6.39
2023-01-17T04:05:20.270Z,6.36
2023-01-17T04:07:48.566Z,6.34
2023-01-17T04:10:18.927Z,6.34
2023-01-17T04:12:47.763Z,6.35
2023-01-17T04:15:16.747Z,6.39
2023-01-17T04:17:45.289Z,6.45
2023-01-17T04:20:18.353Z,6.51
2023-01-17T04:22:47.020Z,6.52
2023-01-17T04:25:15.723Z,6.55
2023-01-17T04:27:45.452Z,6.49
2023-01-17T04:30:14.455Z,6.46
2023-01-17T04:32:42.810Z,6.44
2023-01-17T04:35:11.425Z,6.45
2023-01-17T04:37:39.786Z,6.48
2023-01-17T04:40:09.352Z,6.52
2023-01-17T04:42:37.760Z,6.55
2023-01-17T04:45:08.935Z,6.60
2023-01-17T04:47:37.379Z,6.62
2023-01-17T04:50:06.472Z,6.61
2023-01-17T04:52:35.188Z,6.59
2023-01-17T04:55:03.640Z,6.59
2023-01-17T04:57:32.072Z,6.61
2023-01-17T05:00:00.861Z,6.57
2023-01-17T05:02:30.705Z,6.57
2023-01-17T05:04:59.143Z,6.59
2023-01-17T05:07:27.922Z,6.63
2023-01-17T05:09:59.961Z,6.68
2023-01-17T05:12:28.782Z,6.68
2023-01-17T05:14:57.063Z,6.74
2023-01-17T05:17:25.835Z,6.73
2023-01-17T05:19:55.809Z,6.66
2023-01-17T05:22:24.419Z,6.59
2023-01-17T05:24:53.079Z,6.48
2023-01-17T05:27:21.384Z,6.42
2023-01-17T05:29:50.029Z,6.34
2023-01-17T05:32:18.650Z,6.28
2023-01-17T05:34:47.019Z,6.22
2023-01-17T05:37:17.064Z,6.19
2023-01-17T05:39:45.454Z,6.18
2023-01-17T05:42:13.732Z,6.20
2023-01-17T05:44:42.538Z,6.20
2023-01-17T05:47:10.850Z,6.21
2023-01-17T05:49:39.886Z,6.20
2023-01-17T05:52:08.567Z,6.17
2023-01-17T05:54:38.406Z,6.16
2023-01-17T05:57:06.738Z,6.12
2023-01-17T05:59:37.333Z,6.10
2023-01-17T06:02:06.103Z,6.14
2023-01-17T06:04:35.097Z,6.17
2023-01-17T06:07:03.813Z,6.17
2023-01-17T06:09:32.117Z,6.14
2023-01-17T06:12:02.087Z,6.05
2023-01-17T06:14:30.425Z,5.99
2023-01-17T06:16:58.691Z,5.95
2023-01-17T06:19:27.186Z,5.95
2023-01-17T06:21:55.483Z,5.99
2023-01-17T06:24:25.306Z,6.09
2023-01-17T06:26:53.619Z,6.17
2023-01-17T06:29:23.863Z,6.28
2023-01-17T06:31:52.187Z,6.34
2023-01-17T06:34:20.624Z,6.41
2023-01-17T06:36:48.916Z,6.45
2023-01-17T06:39:17.303Z,6.45
2023-01-17T06:41:45.947Z,6.42
2023-01-17T06:44:14.683Z,6.43
2023-01-17T06:46:45.211Z,6.41
2023-01-17T06:49:13.857Z,6.43
2023-01-17T06:51:43.712Z,6.43
2023-01-17T06:54:12.490Z,6.49
2023-01-17T06:56:41.107Z,6.57
2023-01-17T06:59:09.513Z,6.61
2023-01-17T07:01:38.018Z,6.65
2023-01-17T07:04:08.409Z,6.67
2023-01-17T07:06:37.824Z,6.66
2023-01-17T07:09:06.549Z,6.71
2023-01-17T07:11:34.932Z,6.70
2023-01-17T07:14:03.732Z,6.76
2023-01-17T07:16:32.139Z,6.82
2023-01-17T07:19:00.509Z,6.87
2023-01-17T07:21:30.230Z,6.90
2023-01-17T07:23:58.551Z,6.93
2023-01-17T07:26:26.796Z,6.96
2023-01-17T07:28:55.151Z,7.04
2023-01-17T07:31:23.493Z,7.07
2023-01-17T07:33:51.813Z,7.17
2023-01-17T07:36:20.230Z,7.19
2023-01-17T07:38:49.920Z,7.18
2023-01-17T07:41:18.188Z,7.15
2023-01-17T07:43:46.730Z,7.19
2023-01-17T07:46:15.448Z,7.15
2023-01-17T07:48:44.131Z,7.17
2023-01-17T07:51:12.589Z,7.13
2023-01-17T07:53:40.944Z,7.11
2023-01-17T07:56:10.869Z,7.07
2023-01-17T07:58:39.215Z,7.04
2023-01-17T08:01:09.728Z,6.96
2023-01-17T08:03:40.235Z,6.92
2023-01-17T08:06:16.050Z,6.83
2023-01-17T08:08:44.424Z,6.85
2023-01-17T08:11:14.186Z,6.88
2023-01-17T08:13:42.581Z,6.86
2023-01-17T08:16:11.779Z,6.89
2023-01-17T08:18:40.521Z,6.92
2023-01-17T08:21:15.544Z,6.93
2023-01-17T08:23:43.936Z,6.87
2023-01-17T08:26:22.423Z,6.90
2023-01-17T08:28:55.838Z,6.90
2023-01-17T08:31:25.396Z,6.90
2023-01-17T08:33:53.853Z,6.90
2023-01-17T08:36:22.185Z,6.92
2023-01-17T08:38:52.928Z,6.98
2023-01-17T08:41:22.903Z,7.00
2023-01-17T08:43:53.436Z,7.10
2023-01-17T08:46:22.523Z,7.10
2023-01-17T08:48:55.911Z,7.11
2023-01-17T08:51:26.494Z,7.07
2023-01-17T08:53:56.395Z,7.04
2023-01-17T08:56:27.410Z,7.04
2023-01-17T08:58:55.848Z,6.98
2023-01-17T09:01:24.306Z,6.96
2023-01-17T09:03:53.079Z,6.98
2023-01-17T09:06:21.951Z,7.00
2023-01-17T09:08:54.925Z,7.04
2023-01-17T09:11:23.383Z,7.08
2023-01-17T09:13:53.082Z,7.13
2023-01-17T09:16:22.064Z,7.18
2023-01-17T09:18:50.406Z,7.14
2023-01-17T09:21:19.934Z,7.20
2023-01-17T09:23:49.433Z,7.11
2023-01-17T09:26:20.255Z,7.04
2023-01-17T09:28:49.221Z,7.00
2023-01-17T09:31:20.958Z,6.97
2023-01-17T09:33:49.776Z,7.00
2023-01-17T09:36:18.532Z,7.01
2023-01-17T09:38:46.987Z,7.07
2023-01-17T09:41:24.126Z,7.08
2023-01-17T09:43:56.100Z,7.10
2023-01-17T09:46:30.308Z,7.07
2023-01-17T09:49:07.499Z,7.02
2023-01-17T09:51:38.209Z,6.99
2023-01-17T09:54:06.875Z,6.93
2023-01-17T09:56:42.552Z,6.91
2023-01-17T09:59:32.685Z,6.91
2023-01-17T10:02:21.131Z,6.87
2023-01-17T10:05:07.642Z,6.84
2023-01-17T10:07:46.866Z,6.86
2023-01-17T10:10:29.235Z,6.83
2023-01-17T10:13:02.235Z,6.78
2023-01-17T10:15:45.415Z,6.79
2023-01-17T10:19:00.819Z,6.78
2023-01-17T10:21:42.779Z,6.78
2023-01-17T10:24:26.685Z,6.76
2023-01-17T10:26:57.481Z,6.67
2023-01-17T10:29:30.163Z,6.60
2023-01-17T10:32:00.973Z,6.54
2023-01-17T10:34:37.779Z,6.60
2023-01-17T10:37:18.083Z,6.53
2023-01-17T10:39:49.538Z,6.54
2023-01-17T10:42:24.609Z,6.63
2023-01-17T10:45:00.777Z,6.67
2023-01-17T10:47:33.141Z,6.74
2023-01-17T10:50:05.335Z,6.76
2023-01-17T10:52:40.675Z,6.72
2023-01-17T10:55:20.531Z,6.82
2023-01-17T10:57:52.410Z,6.78
2023-01-17T11:00:33.680Z,6.97
2023-01-17T11:03:03.719Z,7.05
2023-01-17T11:05:35.192Z,7.08
2023-01-17T11:08:06.453Z,7.10
2023-01-17T11:10:40.121Z,7.32
2023-01-17T11:13:24.703Z,7.59
2023-01-17T11:15:57.844Z,7.66
2023-01-17T11:18:30.264Z,7.85
2023-01-17T11:21:13.615Z,7.84
2023-01-17T11:23:44.055Z,7.71
2023-01-17T11:26:22.187Z,7.47
2023-01-17T11:28:52.053Z,7.37
2023-01-17T11:31:27.976Z,7.21
2023-01-17T11:34:16.825Z,7.21
2023-01-17T11:36:47.583Z,7.31
2023-01-17T11:39:29.722Z,7.35
2023-01-17T11:41:58.594Z,7.35
2023-01-17T11:44:29.070Z,7.42
2023-01-17T11:47:17.116Z,7.63
2023-01-17T11:49:47.498Z,7.80
2023-01-17T11:52:24.566Z,7.86
2023-01-17T11:54:55.544Z,7.90
2023-01-17T11:57:27.386Z,7.88
2023-01-17T12:00:02.791Z,7.93
2023-01-17T12:03:13.671Z,7.92
2023-01-17T12:06:05.787Z,7.96
2023-01-17T12:08:55.335Z,8.10
2023-01-17T12:11:32.213Z,8.23
2023-01-17T12:14:09.329Z,8.48
2023-01-17T12:17:01.762Z,8.50
2023-01-17T12:19:39.081Z,8.59
2023-01-17T12:22:22.262Z,8.67
2023-01-17T12:25:08.735Z,8.65
2023-01-17T12:27:47.070Z,8.62
2023-01-17T12:30:33.588Z,8.63
2023-01-17T12:33:22.098Z,8.59
2023-01-17T12:35:54.807Z,8.56
2023-01-17T12:38:32.793Z,8.49
2023-01-17T12:41:08.739Z,8.43
2023-01-17T12:43:41.120Z,8.46
2023-01-17T12:46:20.972Z,8.53
2023-01-17T12:48:53.945Z,8.48
2023-01-17T12:51:29.465Z,8.45
2023-01-17T12:54:03.280Z,8.44
2023-01-17T12:56:37.749Z,8.48
2023-01-17T12:59:16.955Z,8.50
2023-01-17T13:01:57.838Z,8.53
2023-01-17T13:04:30.767Z,8.60
2023-01-17T13:07:08.634Z,8.65
2023-01-17T13:09:44.039Z,8.53
2023-01-17T13:12:16.567Z,8.42
2023-01-17T13:14:46.825Z,8.35
2023-01-17T13:17:27.919Z,8.28
2023-01-17T13:20:02.612Z,8.19
2023-01-17T13:22:33.187Z,8.21
2023-01-17T13:25:14.141Z,8.27
2023-01-17T13:28:10.834Z,8.27
2023-01-17T13:31:17.285Z,8.13
2023-01-17T13:34:02.796Z,8.10
2023-01-17T13:36:46.669Z,8.17
2023-01-17T13:39:51.077Z,8.23
2023-01-17T13:42:27.743Z,8.25
2023-01-17T13:44:58.397Z,8.25
2023-01-17T13:47:41.842Z,8.27
2023-01-17T13:51:02.324Z,8.14
2023-01-17T13:53:47.332Z,8.09
2023-01-17T13:56:25.194Z,8.06
2023-01-17T13:59:02.296Z,8.15
2023-01-17T14:01:57.031Z,8.09
2023-01-17T14:04:26.897Z,7.90
2023-01-17T14:07:03.955Z,7.92
2023-01-17T14:09:42.469Z,7.87
2023-01-17T14:12:35.038Z,7.91
2023-01-17T14:15:05.791Z,7.92
2023-01-17T14:17:57.019Z,7.95
2023-01-17T14:20:51.978Z,7.95
2023-01-17T14:23:41.830Z,7.89
2023-01-17T14:26:23.903Z,7.91
2023-01-17T14:28:53.826Z,7.97
2023-01-17T14:31:24.329Z,8.02
2023-01-17T14:33:54.372Z,8.05
2023-01-17T14:36:29.629Z,8.00
2023-01-17T14:38:58.416Z,7.96
2023-01-17T14:41:29.920Z,7.93
2023-01-17T14:44:01.313Z,7.98
2023-01-17T14:46:32.350Z,8.01
2023-01-17T14:49:04.235Z,8.00
2023-01-17T14:51:35.213Z,7.94
2023-01-17T14:54:06.931Z,7.91
2023-01-17T14:56:35.541Z,7.89
2023-01-17T14:59:14.551Z,7.86
2023-01-17T15:01:48.066Z,7.84
2023-01-17T15:04:29.178Z,7.89
2023-01-17T15:06:59.832Z,7.95
2023-01-17T15:09:30.784Z,7.92
2023-01-17T15:11:59.984Z,7.90
2023-01-17T15:14:33.484Z,7.85
2023-01-17T15:17:11.126Z,7.88
2023-01-17T16:26:14.601Z,6.22
2023-01-17T16:32:27.419Z,6.11
2023-01-17T16:39:26.507Z,5.99
2023-01-17T16:42:59.328Z,5.95
2023-01-17T16:45:39.469Z,5.90
2023-01-17T16:53:01.556Z,5.77
2023-01-17T16:57:11.164Z,5.68
2023-01-17T17:00:49.204Z,5.64
2023-01-17T17:14:30.534Z,5.47
2023-01-17T17:18:08.047Z,5.42
2023-01-17T18:25:09.222Z,4.64
2023-01-17T18:28:05.655Z,4.65
2023-01-17T18:32:08.227Z,4.65
2023-01-17T18:35:20.393Z,4.67
2023-01-17T18:53:46.098Z,4.68
2023-01-17T19:12:48.533Z,4.83
2023-01-17T21:39:42.442Z,5.05
2023-01-17T21:42:10.717Z,5.06
2023-01-17T21:44:39.043Z,5.04
2023-01-17T21:47:07.349Z,5.01
2023-01-17T22:31:15.565Z,5.44
2023-01-17T22:46:39.924Z,5.38
2023-01-17T22:50:20.028Z,5.28
2023-01-17T23:31:52.171Z,4.75
2023-01-17T23:34:20.601Z,4.72
